sensor_id;sensor_type;location;lat;lon;timestamp;P1;durP1;ratioP1;P2;durP2;ratioP2
50205;SDS011;36098;48.390;10.856;2023-10-09T00:03:38;5.90;;;2.95;;
50205;SDS011;36098;48.390;10.856;2023-10-09T00:06:04;5.53;;;3.00;;
50205;SDS011;36098;48.390;10.856;2023-10-09T00:08:29;5.85;;;2.65;;
50205;SDS011;36098;48.390;10.856;2023-10-09T00:11:00;5.15;;;3.00;;
50205;SDS011;36098;48.390;10.856;2023-10-09T00:13:42;7.13;;;2.80;;
50205;SDS011;36098;48.390;10.856;2023-10-09T00:16:15;6.15;;;2.88;;
50205;SDS011;36098;48.390;10.856;2023-10-09T00:18:41;5.43;;;3.17;;
50205;SDS011;36098;48.390;10.856;2023-10-09T00:21:17;5.97;;;2.92;;
50205;SDS011;36098;48.390;10.856;2023-10-09T00:23:45;5.50;;;2.83;;
50205;SDS011;36098;48.390;10.856;2023-10-09T00:26:17;6.78;;;2.92;;
50205;SDS011;36098;48.390;10.856;2023-10-09T00:28:42;6.72;;;2.88;;
50205;SDS011;36098;48.390;10.856;2023-10-09T00:31:15;5.50;;;2.95;;
50205;SDS011;36098;48.390;10.856;2023-10-09T00:33:44;5.72;;;3.08;;
50205;SDS011;36098;48.390;10.856;2023-10-09T00:36:09;7.00;;;3.17;;
50205;SDS011;36098;48.390;10.856;2023-10-09T00:38:36;4.50;;;2.53;;
50205;SDS011;36098;48.390;10.856;2023-10-09T00:41:05;7.93;;;3.00;;
50205;SDS011;36098;48.390;10.856;2023-10-09T00:43:33;7.38;;;2.90;;
50205;SDS011;36098;48.390;10.856;2023-10-09T00:46:01;5.68;;;3.40;;
50205;SDS011;36098;48.390;10.856;2023-10-09T00:48:45;6.50;;;3.17;;
50205;SDS011;36098;48.390;10.856;2023-10-09T00:51:13;5.22;;;2.90;;
50205;SDS011;36098;48.390;10.856;2023-10-09T00:53:50;5.90;;;2.58;;
50205;SDS011;36098;48.390;10.856;2023-10-09T00:56:18;4.63;;;2.88;;
50205;SDS011;36098;48.390;10.856;2023-10-09T00:58:54;6.00;;;2.72;;
50205;SDS011;36098;48.390;10.856;2023-10-09T01:01:39;6.22;;;2.97;;
50205;SDS011;36098;48.390;10.856;2023-10-09T01:04:06;4.38;;;2.45;;
50205;SDS011;36098;48.390;10.856;2023-10-09T01:06:35;8.32;;;3.08;;
50205;SDS011;36098;48.390;10.856;2023-10-09T01:09:08;5.03;;;2.90;;
50205;SDS011;36098;48.390;10.856;2023-10-09T01:11:36;4.75;;;2.47;;
50205;SDS011;36098;48.390;10.856;2023-10-09T01:14:13;5.35;;;2.97;;
50205;SDS011;36098;48.390;10.856;2023-10-09T01:16:40;6.70;;;2.90;;
50205;SDS011;36098;48.390;10.856;2023-10-09T01:19:07;6.15;;;2.80;;
50205;SDS011;36098;48.390;10.856;2023-10-09T01:21:38;6.63;;;2.83;;
50205;SDS011;36098;48.390;10.856;2023-10-09T01:24:05;4.20;;;2.60;;
50205;SDS011;36098;48.390;10.856;2023-10-09T01:26:40;6.07;;;2.70;;
50205;SDS011;36098;48.390;10.856;2023-10-09T01:29:13;6.60;;;2.55;;
50205;SDS011;36098;48.390;10.856;2023-10-09T01:31:41;6.28;;;2.83;;
50205;SDS011;36098;48.390;10.856;2023-10-09T01:34:26;5.30;;;2.83;;
50205;SDS011;36098;48.390;10.856;2023-10-09T01:37:12;7.20;;;2.80;;
50205;SDS011;36098;48.390;10.856;2023-10-09T01:39:51;5.22;;;2.67;;
50205;SDS011;36098;48.390;10.856;2023-10-09T01:42:17;4.78;;;2.72;;
50205;SDS011;36098;48.390;10.856;2023-10-09T01:44:59;5.40;;;2.70;;
50205;SDS011;36098;48.390;10.856;2023-10-09T01:47:34;4.18;;;2.25;;
50205;SDS011;36098;48.390;10.856;2023-10-09T01:50:02;5.80;;;2.65;;
50205;SDS011;36098;48.390;10.856;2023-10-09T01:52:43;5.43;;;2.50;;
50205;SDS011;36098;48.390;10.856;2023-10-09T01:55:08;5.22;;;2.53;;
50205;SDS011;36098;48.390;10.856;2023-10-09T01:57:37;4.90;;;2.47;;
50205;SDS011;36098;48.390;10.856;2023-10-09T02:00:04;4.07;;;2.70;;
50205;SDS011;36098;48.390;10.856;2023-10-09T02:02:30;4.88;;;2.70;;
50205;SDS011;36098;48.390;10.856;2023-10-09T02:05:04;6.05;;;2.50;;
50205;SDS011;36098;48.390;10.856;2023-10-09T02:07:39;5.35;;;2.58;;
50205;SDS011;36098;48.390;10.856;2023-10-09T02:10:18;4.60;;;2.53;;
50205;SDS011;36098;48.390;10.856;2023-10-09T02:12:54;5.97;;;2.80;;
50205;SDS011;36098;48.390;10.856;2023-10-09T02:15:30;5.55;;;2.60;;
50205;SDS011;36098;48.390;10.856;2023-10-09T02:18:08;5.25;;;2.55;;
50205;SDS011;36098;48.390;10.856;2023-10-09T02:20:44;7.30;;;3.00;;
50205;SDS011;36098;48.390;10.856;2023-10-09T02:23:10;5.43;;;2.38;;
50205;SDS011;36098;48.390;10.856;2023-10-09T02:25:38;6.07;;;2.60;;
50205;SDS011;36098;48.390;10.856;2023-10-09T02:28:08;5.80;;;2.60;;
50205;SDS011;36098;48.390;10.856;2023-10-09T02:30:34;5.30;;;2.58;;
50205;SDS011;36098;48.390;10.856;2023-10-09T02:32:59;4.93;;;2.55;;
50205;SDS011;36098;48.390;10.856;2023-10-09T02:35:33;4.85;;;2.72;;
50205;SDS011;36098;48.390;10.856;2023-10-09T02:38:07;5.43;;;2.40;;
50205;SDS011;36098;48.390;10.856;2023-10-09T02:40:35;4.70;;;2.50;;
50205;SDS011;36098;48.390;10.856;2023-10-09T02:43:27;7.90;;;2.63;;
50205;SDS011;36098;48.390;10.856;2023-10-09T02:46:12;4.20;;;2.40;;
50205;SDS011;36098;48.390;10.856;2023-10-09T02:48:58;4.45;;;2.47;;
50205;SDS011;36098;48.390;10.856;2023-10-09T02:51:24;8.32;;;2.85;;
50205;SDS011;36098;48.390;10.856;2023-10-09T02:53:51;5.32;;;2.40;;
50205;SDS011;36098;48.390;10.856;2023-10-09T02:56:22;5.13;;;2.63;;
50205;SDS011;36098;48.390;10.856;2023-10-09T02:59:01;6.80;;;2.92;;
50205;SDS011;36098;48.390;10.856;2023-10-09T03:01:31;6.00;;;2.58;;
50205;SDS011;36098;48.390;10.856;2023-10-09T03:03:56;5.80;;;2.30;;
50205;SDS011;36098;48.390;10.856;2023-10-09T03:06:24;5.28;;;2.72;;
50205;SDS011;36098;48.390;10.856;2023-10-09T03:08:53;5.03;;;2.10;;
50205;SDS011;36098;48.390;10.856;2023-10-09T03:11:19;4.85;;;2.42;;
50205;SDS011;36098;48.390;10.856;2023-10-09T03:13:45;8.05;;;2.58;;
50205;SDS011;36098;48.390;10.856;2023-10-09T03:16:13;6.40;;;2.80;;
50205;SDS011;36098;48.390;10.856;2023-10-09T03:18:51;5.53;;;2.40;;
50205;SDS011;36098;48.390;10.856;2023-10-09T03:21:17;5.10;;;2.78;;
50205;SDS011;36098;48.390;10.856;2023-10-09T03:23:47;7.53;;;2.67;;
50205;SDS011;36098;48.390;10.856;2023-10-09T03:26:18;5.10;;;2.40;;
50205;SDS011;36098;48.390;10.856;2023-10-09T03:28:47;5.90;;;2.75;;
50205;SDS011;36098;48.390;10.856;2023-10-09T03:31:13;6.18;;;2.30;;
50205;SDS011;36098;48.390;10.856;2023-10-09T03:33:39;6.35;;;2.53;;
50205;SDS011;36098;48.390;10.856;2023-10-09T03:36:05;5.10;;;2.30;;
50205;SDS011;36098;48.390;10.856;2023-10-09T03:38:34;5.22;;;2.45;;
50205;SDS011;36098;48.390;10.856;2023-10-09T03:41:01;6.63;;;2.78;;
50205;SDS011;36098;48.390;10.856;2023-10-09T03:43:34;6.10;;;2.75;;
50205;SDS011;36098;48.390;10.856;2023-10-09T03:46:13;5.90;;;2.38;;
50205;SDS011;36098;48.390;10.856;2023-10-09T03:48:51;6.05;;;2.60;;
50205;SDS011;36098;48.390;10.856;2023-10-09T03:51:17;4.68;;;2.40;;
50205;SDS011;36098;48.390;10.856;2023-10-09T03:53:49;5.85;;;2.60;;
50205;SDS011;36098;48.390;10.856;2023-10-09T03:56:17;7.18;;;2.78;;
50205;SDS011;36098;48.390;10.856;2023-10-09T03:58:44;6.45;;;2.70;;
50205;SDS011;36098;48.390;10.856;2023-10-09T04:01:14;6.47;;;2.45;;
50205;SDS011;36098;48.390;10.856;2023-10-09T04:03:53;6.03;;;2.22;;
50205;SDS011;36098;48.390;10.856;2023-10-09T04:06:23;4.97;;;2.30;;
50205;SDS011;36098;48.390;10.856;2023-10-09T04:08:53;5.13;;;2.50;;
50205;SDS011;36098;48.390;10.856;2023-10-09T04:11:19;6.05;;;2.60;;
50205;SDS011;36098;48.390;10.856;2023-10-09T04:13:48;5.38;;;2.20;;
50205;SDS011;36098;48.390;10.856;2023-10-09T04:16:14;5.47;;;2.13;;
50205;SDS011;36098;48.390;10.856;2023-10-09T04:18:56;5.47;;;2.55;;
50205;SDS011;36098;48.390;10.856;2023-10-09T04:21:25;7.32;;;2.58;;
50205;SDS011;36098;48.390;10.856;2023-10-09T04:24:01;5.85;;;2.70;;
50205;SDS011;36098;48.390;10.856;2023-10-09T04:26:43;5.47;;;2.40;;
50205;SDS011;36098;48.390;10.856;2023-10-09T04:29:10;5.57;;;2.42;;
50205;SDS011;36098;48.390;10.856;2023-10-09T04:31:45;4.85;;;2.22;;
50205;SDS011;36098;48.390;10.856;2023-10-09T04:34:16;5.55;;;2.35;;
50205;SDS011;36098;48.390;10.856;2023-10-09T04:36:54;5.05;;;2.38;;
50205;SDS011;36098;48.390;10.856;2023-10-09T04:39:25;5.47;;;2.53;;
50205;SDS011;36098;48.390;10.856;2023-10-09T04:41:54;4.03;;;1.90;;
50205;SDS011;36098;48.390;10.856;2023-10-09T04:44:40;4.38;;;2.35;;
50205;SDS011;36098;48.390;10.856;2023-10-09T04:47:24;7.15;;;2.60;;
50205;SDS011;36098;48.390;10.856;2023-10-09T04:50:00;7.70;;;2.42;;
50205;SDS011;36098;48.390;10.856;2023-10-09T04:52:26;3.58;;;1.73;;
50205;SDS011;36098;48.390;10.856;2023-10-09T04:54:54;4.97;;;2.30;;
50205;SDS011;36098;48.390;10.856;2023-10-09T04:57:31;5.32;;;2.53;;
50205;SDS011;36098;48.390;10.856;2023-10-09T05:00:17;6.15;;;2.60;;
50205;SDS011;36098;48.390;10.856;2023-10-09T05:02:53;12.63;;;2.45;;
50205;SDS011;36098;48.390;10.856;2023-10-09T05:05:38;5.88;;;2.42;;
50205;SDS011;36098;48.390;10.856;2023-10-09T05:08:14;5.18;;;2.15;;
50205;SDS011;36098;48.390;10.856;2023-10-09T05:10:53;10.48;;;2.47;;
50205;SDS011;36098;48.390;10.856;2023-10-09T05:13:26;11.10;;;3.08;;
50205;SDS011;36098;48.390;10.856;2023-10-09T05:16:10;12.95;;;2.70;;
50205;SDS011;36098;48.390;10.856;2023-10-09T05:18:42;9.52;;;2.67;;
50205;SDS011;36098;48.390;10.856;2023-10-09T05:21:10;9.77;;;2.90;;
50205;SDS011;36098;48.390;10.856;2023-10-09T05:23:41;13.05;;;3.10;;
50205;SDS011;36098;48.390;10.856;2023-10-09T05:26:13;7.05;;;2.38;;
50205;SDS011;36098;48.390;10.856;2023-10-09T05:29:00;10.18;;;3.03;;
50205;SDS011;36098;48.390;10.856;2023-10-09T05:31:43;17.40;;;2.95;;
50205;SDS011;36098;48.390;10.856;2023-10-09T05:34:21;12.40;;;3.20;;
50205;SDS011;36098;48.390;10.856;2023-10-09T05:36:46;9.98;;;2.90;;
50205;SDS011;36098;48.390;10.856;2023-10-09T05:39:13;12.32;;;2.72;;
50205;SDS011;36098;48.390;10.856;2023-10-09T05:41:55;9.50;;;2.53;;
50205;SDS011;36098;48.390;10.856;2023-10-09T05:44:25;14.57;;;2.58;;
50205;SDS011;36098;48.390;10.856;2023-10-09T05:47:09;10.90;;;2.83;;
50205;SDS011;36098;48.390;10.856;2023-10-09T05:49:49;10.88;;;2.83;;
50205;SDS011;36098;48.390;10.856;2023-10-09T05:52:41;9.10;;;3.40;;
50205;SDS011;36098;48.390;10.856;2023-10-09T05:55:06;12.23;;;2.60;;
50205;SDS011;36098;48.390;10.856;2023-10-09T05:57:44;8.55;;;2.45;;
50205;SDS011;36098;48.390;10.856;2023-10-09T06:00:24;12.35;;;2.60;;
50205;SDS011;36098;48.390;10.856;2023-10-09T06:03:09;14.18;;;3.10;;
50205;SDS011;36098;48.390;10.856;2023-10-09T06:05:56;14.77;;;3.30;;
50205;SDS011;36098;48.390;10.856;2023-10-09T06:08:25;7.82;;;2.88;;
50205;SDS011;36098;48.390;10.856;2023-10-09T06:11:06;7.43;;;2.47;;
50205;SDS011;36098;48.390;10.856;2023-10-09T06:13:51;15.48;;;2.60;;
50205;SDS011;36098;48.390;10.856;2023-10-09T06:16:28;11.30;;;3.40;;
50205;SDS011;36098;48.390;10.856;2023-10-09T06:19:02;8.95;;;2.63;;
50205;SDS011;36098;48.390;10.856;2023-10-09T06:21:36;8.68;;;2.75;;
50205;SDS011;36098;48.390;10.856;2023-10-09T06:24:25;15.18;;;2.90;;
50205;SDS011;36098;48.390;10.856;2023-10-09T06:27:16;10.98;;;2.40;;
50205;SDS011;36098;48.390;10.856;2023-10-09T06:29:57;9.98;;;2.42;;
50205;SDS011;36098;48.390;10.856;2023-10-09T06:32:50;9.95;;;2.88;;
50205;SDS011;36098;48.390;10.856;2023-10-09T06:35:16;9.73;;;2.72;;
50205;SDS011;36098;48.390;10.856;2023-10-09T06:38:02;10.18;;;2.65;;
50205;SDS011;36098;48.390;10.856;2023-10-09T06:40:49;7.13;;;2.50;;
50205;SDS011;36098;48.390;10.856;2023-10-09T06:43:30;12.48;;;2.88;;
50205;SDS011;36098;48.390;10.856;2023-10-09T06:45:57;6.72;;;2.63;;
50205;SDS011;36098;48.390;10.856;2023-10-09T06:48:26;4.90;;;2.13;;
50205;SDS011;36098;48.390;10.856;2023-10-09T06:51:05;9.70;;;2.65;;
50205;SDS011;36098;48.390;10.856;2023-10-09T06:53:50;8.85;;;2.72;;
50205;SDS011;36098;48.390;10.856;2023-10-09T06:56:19;7.43;;;2.42;;
50205;SDS011;36098;48.390;10.856;2023-10-09T06:59:13;6.22;;;2.08;;
50205;SDS011;36098;48.390;10.856;2023-10-09T07:01:42;7.93;;;2.40;;
50205;SDS011;36098;48.390;10.856;2023-10-09T07:04:08;10.27;;;2.47;;
50205;SDS011;36098;48.390;10.856;2023-10-09T07:07:05;6.20;;;2.13;;
50205;SDS011;36098;48.390;10.856;2023-10-09T07:09:46;6.43;;;2.40;;
50205;SDS011;36098;48.390;10.856;2023-10-09T07:12:32;4.85;;;2.20;;
50205;SDS011;36098;48.390;10.856;2023-10-09T07:14:59;7.88;;;2.30;;
50205;SDS011;36098;48.390;10.856;2023-10-09T07:17:49;5.50;;;2.20;;
50205;SDS011;36098;48.390;10.856;2023-10-09T07:20:17;7.82;;;2.25;;
50205;SDS011;36098;48.390;10.856;2023-10-09T07:23:01;7.60;;;2.30;;
50205;SDS011;36098;48.390;10.856;2023-10-09T07:25:42;6.60;;;2.78;;
50205;SDS011;36098;48.390;10.856;2023-10-09T07:28:22;6.88;;;2.15;;
50205;SDS011;36098;48.390;10.856;2023-10-09T07:31:07;6.88;;;2.47;;
50205;SDS011;36098;48.390;10.856;2023-10-09T07:33:34;8.43;;;2.10;;
50205;SDS011;36098;48.390;10.856;2023-10-09T07:36:18;7.20;;;2.42;;
50205;SDS011;36098;48.390;10.856;2023-10-09T07:38:59;7.78;;;2.15;;
50205;SDS011;36098;48.390;10.856;2023-10-09T07:41:29;5.95;;;2.20;;
50205;SDS011;36098;48.390;10.856;2023-10-09T07:43:57;6.95;;;2.22;;
50205;SDS011;36098;48.390;10.856;2023-10-09T07:46:23;9.23;;;2.28;;
50205;SDS011;36098;48.390;10.856;2023-10-09T07:48:59;6.20;;;2.33;;
50205;SDS011;36098;48.390;10.856;2023-10-09T07:51:33;5.68;;;2.20;;
50205;SDS011;36098;48.390;10.856;2023-10-09T07:54:00;6.97;;;2.47;;
50205;SDS011;36098;48.390;10.856;2023-10-09T07:56:39;5.38;;;1.90;;
50205;SDS011;36098;48.390;10.856;2023-10-09T07:59:12;7.55;;;2.25;;
50205;SDS011;36098;48.390;10.856;2023-10-09T08:04:27;7.18;;;2.25;;
50205;SDS011;36098;48.390;10.856;2023-10-09T08:07:08;7.45;;;2.03;;
50205;SDS011;36098;48.390;10.856;2023-10-09T08:09:44;17.75;;;2.38;;
50205;SDS011;36098;48.390;10.856;2023-10-09T08:12:12;9.88;;;2.60;;
50205;SDS011;36098;48.390;10.856;2023-10-09T08:15:06;8.93;;;2.45;;
50205;SDS011;36098;48.390;10.856;2023-10-09T08:17:47;6.20;;;2.13;;
50205;SDS011;36098;48.390;10.856;2023-10-09T08:20:20;12.23;;;2.80;;
50205;SDS011;36098;48.390;10.856;2023-10-09T08:22:50;16.75;;;7.80;;
50205;SDS011;36098;48.390;10.856;2023-10-09T08:25:17;17.40;;;7.35;;
50205;SDS011;36098;48.390;10.856;2023-10-09T08:27:52;15.77;;;5.90;;
50205;SDS011;36098;48.390;10.856;2023-10-09T08:30:37;16.85;;;8.43;;
50205;SDS011;36098;48.390;10.856;2023-10-09T08:33:20;28.17;;;11.05;;
50205;SDS011;36098;48.390;10.856;2023-10-09T08:35:55;28.17;;;11.27;;
50205;SDS011;36098;48.390;10.856;2023-10-09T08:38:26;40.95;;;18.05;;
50205;SDS011;36098;48.390;10.856;2023-10-09T08:41:05;51.45;;;22.90;;
50205;SDS011;36098;48.390;10.856;2023-10-09T08:43:40;42.58;;;20.33;;
50205;SDS011;36098;48.390;10.856;2023-10-09T08:46:12;56.60;;;23.75;;
50205;SDS011;36098;48.390;10.856;2023-10-09T08:48:43;58.10;;;25.67;;
50205;SDS011;36098;48.390;10.856;2023-10-09T08:51:10;43.53;;;21.50;;
50205;SDS011;36098;48.390;10.856;2023-10-09T08:53:35;49.75;;;21.63;;
50205;SDS011;36098;48.390;10.856;2023-10-09T08:56:07;93.38;;;37.13;;
50205;SDS011;36098;48.390;10.856;2023-10-09T08:58:34;119.97;;;43.17;;
50205;SDS011;36098;48.390;10.856;2023-10-09T09:01:02;103.80;;;41.20;;
50205;SDS011;36098;48.390;10.856;2023-10-09T09:03:37;98.28;;;39.00;;
50205;SDS011;36098;48.390;10.856;2023-10-09T09:06:08;86.63;;;32.60;;
50205;SDS011;36098;48.390;10.856;2023-10-09T09:08:35;72.68;;;30.23;;
50205;SDS011;36098;48.390;10.856;2023-10-09T09:11:04;71.75;;;28.05;;
50205;SDS011;36098;48.390;10.856;2023-10-09T09:16:24;84.03;;;31.95;;
50205;SDS011;36098;48.390;10.856;2023-10-09T09:18:57;74.85;;;30.48;;
50205;SDS011;36098;48.390;10.856;2023-10-09T09:21:33;69.65;;;29.35;;
50205;SDS011;36098;48.390;10.856;2023-10-09T09:24:12;74.78;;;30.30;;
50205;SDS011;36098;48.390;10.856;2023-10-09T09:26:47;63.78;;;28.27;;
50205;SDS011;36098;48.390;10.856;2023-10-09T09:29:24;66.15;;;27.30;;
50205;SDS011;36098;48.390;10.856;2023-10-09T09:32:17;61.67;;;25.92;;
50205;SDS011;36098;48.390;10.856;2023-10-09T09:34:55;67.00;;;28.35;;
50205;SDS011;36098;48.390;10.856;2023-10-09T09:37:26;60.03;;;25.90;;
50205;SDS011;36098;48.390;10.856;2023-10-09T09:40:00;57.08;;;23.15;;
50205;SDS011;36098;48.390;10.856;2023-10-09T09:42:36;53.70;;;21.73;;
50205;SDS011;36098;48.390;10.856;2023-10-09T09:45:03;56.58;;;20.90;;
50205;SDS011;36098;48.390;10.856;2023-10-09T09:47:31;45.25;;;18.95;;
50205;SDS011;36098;48.390;10.856;2023-10-09T09:50:00;43.58;;;16.70;;
50205;SDS011;36098;48.390;10.856;2023-10-09T09:52:36;65.05;;;24.25;;
50205;SDS011;36098;48.390;10.856;2023-10-09T09:55:05;68.50;;;24.23;;
50205;SDS011;36098;48.390;10.856;2023-10-09T09:57:39;64.13;;;22.45;;
50205;SDS011;36098;48.390;10.856;2023-10-09T10:00:06;57.97;;;20.33;;
50205;SDS011;36098;48.390;10.856;2023-10-09T10:02:51;53.88;;;19.92;;
50205;SDS011;36098;48.390;10.856;2023-10-09T10:05:22;55.60;;;21.60;;
50205;SDS011;36098;48.390;10.856;2023-10-09T10:07:54;65.78;;;23.13;;
50205;SDS011;36098;48.390;10.856;2023-10-09T10:10:36;56.78;;;22.50;;
50205;SDS011;36098;48.390;10.856;2023-10-09T10:13:04;57.15;;;21.25;;
50205;SDS011;36098;48.390;10.856;2023-10-09T10:18:21;51.22;;;19.95;;
50205;SDS011;36098;48.390;10.856;2023-10-09T10:23:39;53.67;;;19.85;;
50205;SDS011;36098;48.390;10.856;2023-10-09T10:26:38;49.97;;;19.65;;
50205;SDS011;36098;48.390;10.856;2023-10-09T10:31:56;48.20;;;18.55;;
50205;SDS011;36098;48.390;10.856;2023-10-09T10:34:25;43.03;;;17.83;;
50205;SDS011;36098;48.390;10.856;2023-10-09T10:36:51;39.55;;;17.45;;
50205;SDS011;36098;48.390;10.856;2023-10-09T10:39:23;42.33;;;18.33;;
50205;SDS011;36098;48.390;10.856;2023-10-09T10:42:07;38.25;;;17.25;;
50205;SDS011;36098;48.390;10.856;2023-10-09T10:44:59;39.72;;;16.83;;
50205;SDS011;36098;48.390;10.856;2023-10-09T10:47:27;43.72;;;16.88;;
50205;SDS011;36098;48.390;10.856;2023-10-09T10:49:59;37.45;;;16.65;;
50205;SDS011;36098;48.390;10.856;2023-10-09T10:52:46;39.83;;;15.57;;
50205;SDS011;36098;48.390;10.856;2023-10-09T10:55:22;37.25;;;15.90;;
50205;SDS011;36098;48.390;10.856;2023-10-09T10:57:56;42.35;;;15.65;;
50205;SDS011;36098;48.390;10.856;2023-10-09T11:00:26;39.22;;;15.02;;
50205;SDS011;36098;48.390;10.856;2023-10-09T11:03:16;39.78;;;15.68;;
50205;SDS011;36098;48.390;10.856;2023-10-09T11:06:08;32.78;;;14.38;;
50205;SDS011;36098;48.390;10.856;2023-10-09T11:08:44;35.10;;;14.40;;
50205;SDS011;36098;48.390;10.856;2023-10-09T11:11:19;44.63;;;14.60;;
50205;SDS011;36098;48.390;10.856;2023-10-09T11:13:45;34.83;;;13.43;;
50205;SDS011;36098;48.390;10.856;2023-10-09T11:16:22;36.13;;;14.25;;
50205;SDS011;36098;48.390;10.856;2023-10-09T11:19:07;40.42;;;14.95;;
50205;SDS011;36098;48.390;10.856;2023-10-09T11:21:58;33.47;;;13.70;;
50205;SDS011;36098;48.390;10.856;2023-10-09T11:24:31;32.13;;;13.60;;
50205;SDS011;36098;48.390;10.856;2023-10-09T11:26:59;37.28;;;13.93;;
50205;SDS011;36098;48.390;10.856;2023-10-09T11:29:31;35.17;;;13.30;;
50205;SDS011;36098;48.390;10.856;2023-10-09T11:32:09;30.70;;;13.38;;
50205;SDS011;36098;48.390;10.856;2023-10-09T11:34:47;34.70;;;12.98;;
50205;SDS011;36098;48.390;10.856;2023-10-09T11:37:23;37.03;;;13.93;;
50205;SDS011;36098;48.390;10.856;2023-10-09T11:39:52;38.53;;;13.20;;
50205;SDS011;36098;48.390;10.856;2023-10-09T11:42:18;33.33;;;12.32;;
50205;SDS011;36098;48.390;10.856;2023-10-09T11:45:03;33.35;;;13.27;;
50205;SDS011;36098;48.390;10.856;2023-10-09T11:47:48;41.20;;;15.73;;
50205;SDS011;36098;48.390;10.856;2023-10-09T11:53:13;47.28;;;15.75;;
50205;SDS011;36098;48.390;10.856;2023-10-09T11:56:05;38.20;;;14.77;;
50205;SDS011;36098;48.390;10.856;2023-10-09T11:58:30;39.95;;;14.57;;
50205;SDS011;36098;48.390;10.856;2023-10-09T12:00:57;42.92;;;15.80;;
50205;SDS011;36098;48.390;10.856;2023-10-09T12:03:30;40.17;;;16.45;;
50205;SDS011;36098;48.390;10.856;2023-10-09T12:06:00;34.38;;;13.25;;
50205;SDS011;36098;48.390;10.856;2023-10-09T12:08:33;31.90;;;12.02;;
50205;SDS011;36098;48.390;10.856;2023-10-09T12:10:59;27.70;;;10.68;;
50205;SDS011;36098;48.390;10.856;2023-10-09T12:13:29;31.60;;;10.32;;
50205;SDS011;36098;48.390;10.856;2023-10-09T12:15:56;26.42;;;9.07;;
50205;SDS011;36098;48.390;10.856;2023-10-09T12:18:22;28.52;;;7.78;;
50205;SDS011;36098;48.390;10.856;2023-10-09T12:20:49;21.77;;;6.53;;
50205;SDS011;36098;48.390;10.856;2023-10-09T12:23:22;19.48;;;5.88;;
50205;SDS011;36098;48.390;10.856;2023-10-09T12:25:48;19.35;;;5.55;;
50205;SDS011;36098;48.390;10.856;2023-10-09T12:28:14;17.25;;;6.20;;
50205;SDS011;36098;48.390;10.856;2023-10-09T12:30:45;18.73;;;6.65;;
50205;SDS011;36098;48.390;10.856;2023-10-09T12:33:17;17.70;;;4.65;;
50205;SDS011;36098;48.390;10.856;2023-10-09T12:35:44;16.60;;;4.57;;
50205;SDS011;36098;48.390;10.856;2023-10-09T12:38:10;16.02;;;3.92;;
50205;SDS011;36098;48.390;10.856;2023-10-09T12:40:38;14.23;;;4.00;;
50205;SDS011;36098;48.390;10.856;2023-10-09T12:43:05;11.90;;;3.50;;
50205;SDS011;36098;48.390;10.856;2023-10-09T12:45:40;17.50;;;4.75;;
50205;SDS011;36098;48.390;10.856;2023-10-09T12:48:05;16.30;;;3.72;;
50205;SDS011;36098;48.390;10.856;2023-10-09T12:50:34;16.10;;;4.60;;
50205;SDS011;36098;48.390;10.856;2023-10-09T12:53:06;17.42;;;3.90;;
50205;SDS011;36098;48.390;10.856;2023-10-09T12:55:34;16.73;;;3.90;;
50205;SDS011;36098;48.390;10.856;2023-10-09T12:58:09;17.60;;;3.83;;
50205;SDS011;36098;48.390;10.856;2023-10-09T13:00:39;18.77;;;4.13;;
50205;SDS011;36098;48.390;10.856;2023-10-09T13:03:09;26.17;;;3.95;;
50205;SDS011;36098;48.390;10.856;2023-10-09T13:05:42;12.02;;;3.45;;
50205;SDS011;36098;48.390;10.856;2023-10-09T13:08:17;17.20;;;3.63;;
50205;SDS011;36098;48.390;10.856;2023-10-09T13:10:47;11.80;;;3.42;;
50205;SDS011;36098;48.390;10.856;2023-10-09T13:13:19;17.45;;;4.07;;
50205;SDS011;36098;48.390;10.856;2023-10-09T13:15:44;12.73;;;3.40;;
50205;SDS011;36098;48.390;10.856;2023-10-09T13:18:10;16.90;;;3.70;;
50205;SDS011;36098;48.390;10.856;2023-10-09T13:20:35;16.17;;;3.92;;
50205;SDS011;36098;48.390;10.856;2023-10-09T13:23:01;15.07;;;3.60;;
50205;SDS011;36098;48.390;10.856;2023-10-09T13:25:26;11.05;;;2.90;;
50205;SDS011;36098;48.390;10.856;2023-10-09T13:27:57;16.20;;;3.65;;
50205;SDS011;36098;48.390;10.856;2023-10-09T13:30:22;13.73;;;3.45;;
50205;SDS011;36098;48.390;10.856;2023-10-09T13:32:51;14.30;;;3.10;;
50205;SDS011;36098;48.390;10.856;2023-10-09T13:35:20;9.68;;;2.72;;
50205;SDS011;36098;48.390;10.856;2023-10-09T13:37:52;25.63;;;3.58;;
50205;SDS011;36098;48.390;10.856;2023-10-09T13:40:21;12.18;;;3.38;;
50205;SDS011;36098;48.390;10.856;2023-10-09T13:42:54;17.45;;;3.30;;
50205;SDS011;36098;48.390;10.856;2023-10-09T13:45:23;14.10;;;3.33;;
50205;SDS011;36098;48.390;10.856;2023-10-09T13:47:55;13.05;;;3.42;;
50205;SDS011;36098;48.390;10.856;2023-10-09T13:50:23;17.55;;;3.80;;
50205;SDS011;36098;48.390;10.856;2023-10-09T13:52:49;22.20;;;3.85;;
50205;SDS011;36098;48.390;10.856;2023-10-09T13:55:18;18.75;;;3.35;;
50205;SDS011;36098;48.390;10.856;2023-10-09T13:57:44;23.42;;;3.83;;
50205;SDS011;36098;48.390;10.856;2023-10-09T14:00:13;16.83;;;3.45;;
50205;SDS011;36098;48.390;10.856;2023-10-09T14:02:45;20.35;;;3.65;;
50205;SDS011;36098;48.390;10.856;2023-10-09T14:05:11;25.48;;;4.18;;
50205;SDS011;36098;48.390;10.856;2023-10-09T14:07:37;22.75;;;4.10;;
50205;SDS011;36098;48.390;10.856;2023-10-09T14:10:03;21.20;;;3.20;;
50205;SDS011;36098;48.390;10.856;2023-10-09T14:12:55;16.33;;;3.72;;
50205;SDS011;36098;48.390;10.856;2023-10-09T14:15:21;14.05;;;3.40;;
50205;SDS011;36098;48.390;10.856;2023-10-09T14:17:47;18.77;;;3.33;;
50205;SDS011;36098;48.390;10.856;2023-10-09T14:20:20;17.65;;;3.58;;
50205;SDS011;36098;48.390;10.856;2023-10-09T14:22:55;17.10;;;3.70;;
50205;SDS011;36098;48.390;10.856;2023-10-09T14:25:21;14.23;;;3.20;;
50205;SDS011;36098;48.390;10.856;2023-10-09T14:27:46;17.67;;;4.15;;
50205;SDS011;36098;48.390;10.856;2023-10-09T14:30:18;18.80;;;4.13;;
50205;SDS011;36098;48.390;10.856;2023-10-09T14:32:55;21.08;;;4.05;;
50205;SDS011;36098;48.390;10.856;2023-10-09T14:35:21;18.33;;;3.92;;
50205;SDS011;36098;48.390;10.856;2023-10-09T14:37:51;13.18;;;3.67;;
50205;SDS011;36098;48.390;10.856;2023-10-09T14:40:18;11.77;;;3.60;;
50205;SDS011;36098;48.390;10.856;2023-10-09T14:42:54;20.35;;;4.15;;
50205;SDS011;36098;48.390;10.856;2023-10-09T14:45:23;15.68;;;4.38;;
50205;SDS011;36098;48.390;10.856;2023-10-09T14:47:52;14.70;;;3.80;;
50205;SDS011;36098;48.390;10.856;2023-10-09T14:50:20;16.50;;;3.55;;
50205;SDS011;36098;48.390;10.856;2023-10-09T14:52:49;12.75;;;3.80;;
50205;SDS011;36098;48.390;10.856;2023-10-09T14:55:15;14.27;;;3.92;;
50205;SDS011;36098;48.390;10.856;2023-10-09T14:57:46;14.23;;;3.30;;
50205;SDS011;36098;48.390;10.856;2023-10-09T15:00:14;14.15;;;3.55;;
50205;SDS011;36098;48.390;10.856;2023-10-09T15:02:40;12.63;;;3.10;;
50205;SDS011;36098;48.390;10.856;2023-10-09T15:05:05;17.52;;;3.90;;
50205;SDS011;36098;48.390;10.856;2023-10-09T15:07:35;13.60;;;3.17;;
50205;SDS011;36098;48.390;10.856;2023-10-09T15:10:04;12.32;;;3.28;;
50205;SDS011;36098;48.390;10.856;2023-10-09T15:12:30;12.50;;;2.75;;
50205;SDS011;36098;48.390;10.856;2023-10-09T15:14:55;12.30;;;3.67;;
50205;SDS011;36098;48.390;10.856;2023-10-09T15:17:21;11.75;;;3.30;;